PWSweather.com
Personal Weather Stations
Station Observations
REUBENS
Camas Prairie, Reubens, ID

Camas PrairieReubens, ID

Lat: 46.35417, Lon: -116.53167

Elevation: 3480

Station Type: Davis VantagePro 2

http://www.theobrienranch.com/wx/wx.htm

Latest ConditionsUpdated 4:00:00 PM PST Wednesday, Nov 26, 2014
Currently Today's Max Today's Min Today's Average
Temperature 45.6°F7.6°C 49.7°F9.8°C 37.2°F2.9°C 44.8°F7.1°C
Dew Point 40.1°F4.5°C 43.0°F6.1°C 36.2°F2.3°C 40.6°F4.8°C
Winds 3.6 mph S5.8 kmh S 8.9 mph W14.3 kmh W - 4.4 mph 7.1 kmh
Wind Gusts 4.0 mph6.4 kmh 10.0 mph16.1 kmh - -
Humidity 81% 97% 70% 86%
Pressure 30.12 in1020.0 mb 30.24 in1024.0 mb 30.12 in1020.0 mb -
Precipitation - 0.21 in5.3 mm - -
Hour Temp Dew Point Humidity Winds Wind Gusts Pressure Precip Precip Rate Daily Precip Total
04:00 PM 45.6°F7.6°C 40.1°F4.5°C 81% 3.6 mph S5.8 kmh S 4.0 mph6.4 kmh 30.12 in1020.0 mb 0.00 in0.0 mm 0.00 in/hr0.0 mm/hr 0.21 in5.3 mm
03:30 PM 45.8°F7.7°C 40.7°F4.8°C 82% 5.6 mph S9.0 kmh S 6.0 mph9.7 kmh 30.14 in1020.7 mb 0.00 in0.0 mm 0.00 in/hr0.0 mm/hr 0.21 in5.3 mm
03:00 PM 46.8°F8.2°C 41.6°F5.3°C 82% 4.6 mph S7.4 kmh S 5.0 mph8.0 kmh 30.14 in1020.7 mb 0.01 in0.3 mm 0.02 in/hr0.5 mm/hr 0.21 in5.3 mm
02:30 PM 47.3°F8.5°C 43.0°F6.1°C 85% 3.4 mph S5.5 kmh S 4.0 mph6.4 kmh 30.16 in1021.3 mb 0.00 in0.0 mm 0.00 in/hr0.0 mm/hr 0.20 in5.1 mm
02:00 PM 48.5°F9.2°C 41.9°F5.5°C 78% 5.0 mph SSW8.0 kmh SSW 5.0 mph8.0 kmh 30.15 in1021.0 mb 0.00 in0.0 mm 0.00 in/hr0.0 mm/hr 0.20 in5.1 mm
01:30 PM 49.3°F9.6°C 42.1°F5.6°C 76% 3.9 mph WSW6.3 kmh WSW 4.0 mph6.4 kmh 30.16 in1021.3 mb 0.01 in0.3 mm 0.02 in/hr0.5 mm/hr 0.20 in5.1 mm
01:00 PM 49.7°F9.8°C 42.1°F5.6°C 75% 1.4 mph WSW2.3 kmh WSW 2.0 mph3.2 kmh 30.15 in1021.0 mb 0.00 in0.0 mm 0.00 in/hr0.0 mm/hr 0.19 in4.8 mm
12:30 PM 49.7°F9.8°C 40.3°F4.6°C 70% 4.4 mph WSW7.1 kmh WSW 6.0 mph9.7 kmh 30.17 in1021.7 mb 0.01 in0.3 mm 0.02 in/hr0.5 mm/hr 0.19 in4.8 mm
12:00 PM 49.4°F9.7°C 41.5°F5.3°C 74% 5.2 mph WSW8.4 kmh WSW 7.0 mph11.3 kmh 30.19 in1022.4 mb 0.00 in0.0 mm 0.00 in/hr0.0 mm/hr 0.18 in4.6 mm
11:30 AM 48.6°F9.2°C 41.7°F5.4°C 77% 3.6 mph SW5.8 kmh SW 4.0 mph6.4 kmh 30.21 in1023.0 mb 0.01 in0.3 mm 0.02 in/hr0.5 mm/hr 0.18 in4.6 mm
11:00 AM 47.4°F8.6°C 41.2°F5.1°C 79% 3.1 mph SW5.0 kmh SW 3.0 mph4.8 kmh 30.22 in1023.4 mb 0.00 in0.0 mm 0.00 in/hr0.0 mm/hr 0.17 in4.3 mm
10:30 AM 47.1°F8.4°C 41.6°F5.3°C 81% 5.0 mph SW8.0 kmh SW 8.0 mph12.9 kmh 30.24 in1024.0 mb 0.01 in0.3 mm 0.02 in/hr0.5 mm/hr 0.17 in4.3 mm
10:00 AM 47.0°F8.3°C 41.1°F5.1°C 80% 4.8 mph WSW7.7 kmh WSW 5.0 mph8.0 kmh 30.24 in1024.0 mb 0.00 in0.0 mm 0.00 in/hr0.0 mm/hr 0.16 in4.1 mm
09:30 AM 46.6°F8.1°C 40.7°F4.8°C 80% 7.1 mph WSW11.4 kmh WSW 10.0 mph16.1 kmh 30.23 in1023.7 mb 0.01 in0.3 mm 0.02 in/hr0.5 mm/hr 0.16 in4.1 mm
09:00 AM 46.2°F7.9°C 40.7°F4.8°C 81% 3.7 mph W6.0 kmh W 4.0 mph6.4 kmh 30.23 in1023.7 mb 0.00 in0.0 mm 0.00 in/hr0.0 mm/hr 0.15 in3.8 mm
08:30 AM 46.0°F7.8°C 40.4°F4.7°C 81% 5.3 mph W8.5 kmh W 7.0 mph11.3 kmh 30.23 in1023.7 mb 0.01 in0.3 mm 0.02 in/hr0.5 mm/hr 0.15 in3.8 mm
08:00 AM 46.0°F7.8°C 40.5°F4.7°C 81% 5.7 mph WSW9.2 kmh WSW 7.0 mph11.3 kmh 30.21 in1023.0 mb 0.01 in0.3 mm 0.02 in/hr0.5 mm/hr 0.14 in3.6 mm
07:30 AM 44.7°F7.1°C 40.5°F4.7°C 85% 4.1 mph WSW6.6 kmh WSW 6.0 mph9.7 kmh 30.20 in1022.7 mb 0.00 in0.0 mm 0.00 in/hr0.0 mm/hr 0.13 in3.3 mm
07:00 AM 44.2°F6.8°C 40.6°F4.8°C 87% 6.9 mph WSW11.1 kmh WSW 9.0 mph14.5 kmh 30.21 in1023.0 mb 0.01 in0.3 mm 0.02 in/hr0.5 mm/hr 0.13 in3.3 mm
06:30 AM 44.7°F7.1°C 40.7°F4.8°C 86% 5.7 mph WSW9.2 kmh WSW 9.0 mph14.5 kmh 30.20 in1022.7 mb 0.01 in0.3 mm 0.02 in/hr0.5 mm/hr 0.12 in3.0 mm
06:00 AM 44.7°F7.1°C 41.1°F5.1°C 87% 6.6 mph W10.6 kmh W 9.0 mph14.5 kmh 30.20 in1022.7 mb 0.00 in0.0 mm 0.00 in/hr0.0 mm/hr 0.11 in2.8 mm
05:30 AM 44.3°F6.8°C 41.0°F5.0°C 88% 4.6 mph W7.4 kmh W 5.0 mph8.0 kmh 30.20 in1022.7 mb 0.01 in0.3 mm 0.02 in/hr0.5 mm/hr 0.11 in2.8 mm
05:00 AM 44.6°F7.0°C 42.4°F5.8°C 92% 8.9 mph W14.3 kmh W 10.0 mph16.1 kmh 30.19 in1022.4 mb 0.01 in0.3 mm 0.02 in/hr0.5 mm/hr 0.10 in2.5 mm
04:30 AM 43.6°F6.4°C 41.1°F5.1°C 91% 3.4 mph WSW5.5 kmh WSW 4.0 mph6.4 kmh 30.19 in1022.4 mb 0.01 in0.3 mm 0.02 in/hr0.5 mm/hr 0.09 in2.3 mm
04:00 AM 43.3°F6.3°C 42.5°F5.8°C 97% 6.0 mph W9.7 kmh W 8.0 mph12.9 kmh 30.19 in1022.4 mb 0.01 in0.3 mm 0.02 in/hr0.5 mm/hr 0.08 in2.0 mm
03:30 AM 41.9°F5.5°C 41.1°F5.1°C 97% 6.0 mph W9.7 kmh W 9.0 mph14.5 kmh 30.19 in1022.4 mb 0.01 in0.3 mm 0.02 in/hr0.5 mm/hr 0.07 in1.8 mm
03:00 AM 41.9°F5.5°C 41.1°F5.1°C 97% 5.9 mph W9.5 kmh W 7.0 mph11.3 kmh 30.20 in1022.7 mb 0.01 in0.3 mm 0.02 in/hr0.5 mm/hr 0.06 in1.5 mm
02:30 AM 41.7°F5.4°C 40.9°F4.9°C 97% 3.7 mph WSW6.0 kmh WSW 7.0 mph11.3 kmh 30.20 in1022.7 mb 0.01 in0.3 mm 0.02 in/hr0.5 mm/hr 0.05 in1.3 mm
02:00 AM 41.7°F5.4°C 40.9°F4.9°C 97% 2.1 mph WSW3.4 kmh WSW 4.0 mph6.4 kmh 30.19 in1022.4 mb 0.01 in0.3 mm 0.02 in/hr0.5 mm/hr 0.04 in1.0 mm
01:30 AM 37.5°F3.1°C 36.5°F2.5°C 96% 2.6 mph SSW4.2 kmh SSW 3.0 mph4.8 kmh 30.20 in1022.7 mb 0.01 in0.3 mm 0.02 in/hr0.5 mm/hr 0.03 in0.8 mm
01:00 AM 37.6°F3.1°C 36.8°F2.7°C 97% 1.0 mph SE1.6 kmh SE 2.0 mph3.2 kmh 30.19 in1022.4 mb 0.01 in0.3 mm 0.02 in/hr0.5 mm/hr 0.02 in0.5 mm
12:30 AM 37.5°F3.1°C 36.5°F2.5°C 96% 1.1 mph SE1.8 kmh SE 2.0 mph3.2 kmh 30.18 in1022.0 mb 0.01 in0.3 mm 0.02 in/hr0.5 mm/hr 0.01 in0.3 mm
12:00 AM 37.2°F2.9°C 36.2°F2.3°C 96% 1.5 mph SE2.4 kmh SE 2.0 mph3.2 kmh 30.19 in1022.4 mb 0.01 in0.3 mm 0.00 in/hr0.0 mm/hr 0.01 in0.3 mm